AirNav   Bose ProFlight Series 2 Headset
 
 996 users online  

DC03 US Park Police Eagle's Nest Heliport
Washington, District of Columbia, USA

GOING TO WASHINGTON?


FAA INFORMATION EFFECTIVE 02 JANUARY 2020

Location

FAA Identifier: DC03
Lat/Long: 38-51-59.4040N 076-59-33.9120W
38-51.990067N 076-59.565200W
38.8665011,-76.9927533
(estimated)
Elevation: 14 ft. / 4 m (estimated)
Variation: 09W (1985)
Time zone: UTC -5 (UTC -4 during Daylight Saving Time)
Zip code: 20020

Heliport Operations

Heliport use: Private use. Permission required prior to landing
Activation date: 03/1973
Control tower: no
ARTCC: WASHINGTON CENTER
FSS: LEESBURG FLIGHT SERVICE STATION
Attendance: 0600-0200
Wind indicator: yes
Segmented circle: no
Lights: SS-SR

Heliport Communications

WX ASOS at DCA (2.3 nm SW): 132.65 (703-412-8140)
WX AWOS-3 at CGS (8 nm NE): 121.225 (301-864-5497)
WX AWOS-3 at FME (17 nm NE): 123.925
WX AWOS-3PT at GAI (20 nm NW): 128.275 (301-977-2971)

Nearby radio navigation aids

VOR radial/distance  VOR name  Freq  Var
DCAr087/2.1WASHINGTON VOR/DME111.0009W
ADWr311/6.9ANDREWS VORTAC113.1010W
OTTr320/15.1NOTTINGHAM VORTAC113.7010W
AMLr108/22.5ARMEL VOR/DME113.5008W
BALr231/23.9BALTIMORE VORTAC115.1011W
BRVr037/36.0BROOKE VORTAC114.5009W
FDKr159/(37.3)FREDERICK VOR109.0008W
EMIr189/37.7WESTMINSTER VORTAC117.9008W

 
NDB name  Hdg/Dist  Freq  Var  ID
OXONN026/6.233211WDCA -.. -.-. .-
GEORGETOWN131/7.232309WGTN --. - -.
DAVEE033/13.522309WDAA -.. .- .-
ELLICOTT213/27.237111WFND ..-. -. -..

Heliport Services

Runway Information

Helipad H2

Dimensions: 70 x 70 ft. / 21 x 21 m
Surface: asphalt/concrete
Runway edge lights: PERI
Traffic pattern: leftleft

Helipad H1

Dimensions: 40 x 40 ft. / 12 x 12 m
Surface: asphalt/concrete
Runway edge lights: PERI
Latitude: 38-51.990067N
Longitude: 076-59.565200W
Elevation: 14.0 ft.
Traffic pattern: leftleft

Heliport Ownership and Management from official FAA records

Ownership: Publicly-owned
Owner: DEPT.INTERIOR NPS NCR USPP
1100 OHIO DR, SW
WASHINGTON, DC 20242
Phone 202-619-7105
Manager: LT. MICHAEL LIBBY
1100 OHIO DR, SW
WASHINGTON, DC 20242
Phone 202-690-0738

Heliport Operational Statistics

Aircraft based on the field: 3
Helicopters: 3
    

Additional Remarks

BLUE TAXI LGTS BTWN HELIPADS
FOR CD CTC POTOMAC APCH AT 866-599-3874.

Instrument Procedures

There are no published instrument procedures at DC03.

Some nearby airports with instrument procedures:

KDCA - Ronald Reagan Washington National Airport (2 nm SW)
KADW - Joint Base Andrews (7 nm SE)
KVKX - Potomac Airfield (7 nm S)
KCGS - College Park Airport (8 nm NE)
W32 - Washington Executive Airport/Hyde Field (8 nm S)
W00 - Freeway Airport (11 nm NE)
KDAA - Davison Army Airfield (13 nm SW)
2W5 - Maryland Airport (17 nm S)
KFME - Tipton Airport (17 nm NE)
KGAI - Montgomery County Airpark (20 nm NW)
 
Loc | Ops | Rwys | IFR | FBO | Links
Com | Nav | Svcs | Stats | Notes
Area around DC03 (US Park Police Eagle's Nest Heliport)
 
Road maps at: MapQuest Bing Google
 
Aerial photo
No photo
 
Sectional chart

 
Airport distance calculator
Flying to US Park Police Eagle's Nest Heliport? Find the distance to fly.

From to DC03

Sunrise and sunset
Times for 29-Jan-2020
 Local
(UTC-5)
 Zulu
(UTC)
Morning civil twilight06:4911:49
Sunrise07:1812:18
Sunset17:2522:25
Evening civil twilight17:5322:53

Current date and time
Zulu (UTC)  29-Jan-2020 12:25:50
Local (UTC-5)  29-Jan-2020 07:25:50
 
METAR
KDCA 
2nm SW 
291152Z 32009KT 10SM OVC039 04/M03 A3011 RMK AO2 SLP194 T00441033 10056 20044 53015
KADW 
7nm SE 
291156Z AUTO 31009KT 10SM OVC037 04/M04 A3008 RMK AO2 SLP195 T00361041 10045 20036 52015 $
KCGS 
8nm NE 
291148Z AUTO 30009KT 10SM OVC042 04/M05 A3009 RMK AO1 T00361052
KDAA 
12nm SW 
291156Z AUTO 29008KT 10SM OVC040 04/M05 A3010 RMK AO2 SLP196 T00411051 10049 20041 52014 $
KFME 
17nm NE 
291148Z AUTO 31004KT 10SM OVC037 03/M02 A3011 RMK AO1
KGAI 
20nm NW 
291156Z AUTO VRB04KT 10SM OVC037 02/M04 A3009 RMK AO2 SLP207 T00221044 10033 20022 53017 FZRANO
TAF
KDCA 
2nm SW 
291127Z 2912/3018 29008KT P6SM OVC040 FM291900 33007KT P6SM SCT040 FM300200 36004KT P6SM SKC FM301300 04004KT P6SM BKN200
KADW 
7nm SE 
290900Z 2909/3015 31010KT 9999 BKN040 QNH3003INS BECMG 2911/2912 33012KT 9999 BKN020 QNH3010INS BECMG 3001/3002 33010G15KT 9999 BKN030 QNH3008INS BECMG 3007/3008 33010G15KT 9999 FEW050 QNH3019INS TX06/2919Z TNM01/3009Z
KDAA 
12nm SW 
291000Z 2910/3016 VRB06KT 9999 BKN020 QNH3007INS BECMG 2913/2914 33010G15KT 9999 BKN020 QNH3012INS BECMG 2918/2919 33010G15KT 9999 SCT030 QNH3010INS BECMG 2921/2922 VRB06KT 9999 SCT020 QNH3010INS TX05/2921Z TNM01/3010Z
NOTAMs
Click for the latest NOTAMs
NOTAMs are issued by the DoD/FAA and will open in a separate window not controlled by AirNav.

 

 
 

Would you like to see your business listed on this page?

 If your business provides an interesting product or service to pilots, flight crews, aircraft, or users of the US Park Police Eagle's Nest Heliport, you should consider listing it here.  To start the listing process, click on the button below
 
Add a business
 

Other Pages about US Park Police Eagle's Nest Heliport

Update a link
 
Copyright © AirNav, LLC. All rights reserved. Privacy Policy  Contact